createdAt,value
2019-02-03T00:00:34.858Z,94750.14
2019-02-03T00:03:01.310Z,94746.17
2019-02-03T00:05:27.641Z,94749.44
2019-02-03T00:07:53.944Z,94743.85
2019-02-03T00:10:20.298Z,94741.66
2019-02-03T00:12:46.650Z,94738.02
2019-02-03T00:15:13.037Z,94744.91
2019-02-03T00:17:39.370Z,94739.49
2019-02-03T00:20:05.770Z,94732.31
2019-02-03T00:22:32.118Z,94740.09
2019-02-03T00:24:59.764Z,94740.00
2019-02-03T00:27:26.113Z,94743.48
2019-02-03T00:29:52.511Z,94747.91
2019-02-03T00:32:18.881Z,94743.25
2019-02-03T00:34:45.274Z,94752.13
2019-02-03T00:37:15.747Z,94752.59
2019-02-03T00:39:38.027Z,94751.40
2019-02-03T00:42:04.369Z,94751.40
2019-02-03T00:44:30.717Z,94753.27
2019-02-03T00:46:57.062Z,94755.25
2019-02-03T00:49:23.399Z,94758.64
2019-02-03T00:51:49.734Z,94756.66
2019-02-03T00:54:16.303Z,94761.11
2019-02-03T00:56:42.653Z,94758.73
2019-02-03T00:59:09.090Z,94759.09
2019-02-03T01:01:35.406Z,94764.59
2019-02-03T01:04:01.744Z,94752.22
2019-02-03T01:06:28.115Z,94772.05
2019-02-03T01:08:54.456Z,94760.59
2019-02-03T01:11:20.851Z,94762.33
2019-02-03T01:13:47.237Z,94748.23
2019-02-03T01:16:13.581Z,94753.36
2019-02-03T01:18:39.931Z,94745.20
2019-02-03T01:21:06.275Z,94744.50
2019-02-03T01:23:32.671Z,94749.17
2019-02-03T01:25:58.974Z,94732.14
2019-02-03T01:28:25.364Z,94732.59
2019-02-03T01:30:51.749Z,94730.64
2019-02-03T01:33:18.088Z,94731.31
2019-02-03T01:35:44.522Z,94729.13
2019-02-03T01:38:10.885Z,94716.30
2019-02-03T01:40:37.278Z,94712.09
2019-02-03T01:43:03.727Z,94712.91
2019-02-03T01:45:30.086Z,94711.98
2019-02-03T01:47:56.462Z,94705.89
2019-02-03T01:50:22.923Z,94710.93
2019-02-03T01:52:50.524Z,94718.41
2019-02-03T01:55:15.665Z,94710.20
2019-02-03T01:57:42.120Z,94711.84
2019-02-03T02:00:08.616Z,94715.23
2019-02-03T02:02:34.912Z,94717.80
2019-02-03T02:05:01.286Z,94714.78
2019-02-03T02:07:27.642Z,94713.49
2019-02-03T02:09:53.969Z,94708.45
2019-02-03T02:12:20.317Z,94707.17
2019-02-03T02:14:46.706Z,94711.02
2019-02-03T02:17:13.043Z,94715.33
2019-02-03T02:19:39.497Z,94720.82
2019-02-03T02:22:05.864Z,94726.31
2019-02-03T02:24:32.245Z,94719.91
2019-02-03T02:26:58.625Z,94728.97
2019-02-03T02:29:24.969Z,94722.92
2019-02-03T02:31:51.377Z,94724.67
2019-02-03T02:34:17.715Z,94729.34
2019-02-03T02:36:44.117Z,94726.65
2019-02-03T02:39:10.514Z,94728.37
2019-02-03T02:41:36.830Z,94728.73
2019-02-03T02:44:03.189Z,94727.45
2019-02-03T02:46:29.538Z,94732.45
2019-02-03T02:48:55.997Z,94735.02
2019-02-03T02:51:22.437Z,94729.06
2019-02-03T02:53:48.638Z,94730.25
2019-02-03T02:56:14.987Z,94724.67
2019-02-03T02:58:44.392Z,94727.23
2019-02-03T03:01:10.821Z,94725.11
2019-02-03T03:03:37.173Z,94727.23
2019-02-03T03:06:03.527Z,94717.65
2019-02-03T03:08:29.872Z,94721.38
2019-02-03T03:10:56.298Z,94726.84
2019-02-03T03:13:22.732Z,94728.15
2019-02-03T03:15:49.095Z,94724.89
2019-02-03T03:18:15.450Z,94724.64
2019-02-03T03:20:41.799Z,94729.77
2019-02-03T03:23:08.154Z,94730.48
2019-02-03T03:25:34.553Z,94729.55
2019-02-03T03:28:00.940Z,94731.63
2019-02-03T03:30:27.316Z,94736.98
2019-02-03T03:32:53.699Z,94742.84
2019-02-03T03:35:20.012Z,94740.83
2019-02-03T03:37:46.354Z,94744.89
2019-02-03T03:40:12.708Z,94746.69
2019-02-03T03:42:39.112Z,94743.39
2019-02-03T03:45:05.569Z,94740.03
2019-02-03T03:47:31.895Z,94738.39
2019-02-03T03:49:58.233Z,94739.45
2019-02-03T03:52:24.579Z,94739.08
2019-02-03T03:54:50.940Z,94742.75
2019-02-03T03:57:17.356Z,94742.11
2019-02-03T03:59:43.739Z,94741.77
2019-02-03T04:02:10.087Z,94747.36
2019-02-03T04:04:36.440Z,94757.98
2019-02-03T04:07:02.935Z,94759.96
2019-02-03T04:09:29.315Z,94764.39
2019-02-03T04:11:55.635Z,94763.66
2019-02-03T04:14:21.981Z,94762.92
2019-02-03T04:16:48.378Z,94757.34
2019-02-03T04:19:15.753Z,94753.12
2019-02-03T04:21:41.161Z,94754.47
2019-02-03T04:24:09.703Z,94757.70
2019-02-03T04:26:36.051Z,94756.20
2019-02-03T04:29:02.398Z,94753.22
2019-02-03T04:31:28.787Z,94748.83
2019-02-03T04:33:55.081Z,94750.11
2019-02-03T04:36:21.452Z,94743.23
2019-02-03T04:38:57.553Z,94743.61
2019-02-03T04:41:14.140Z,94737.28
2019-02-03T04:43:40.483Z,94739.48
2019-02-03T04:46:06.843Z,94742.32
2019-02-03T04:48:33.179Z,94740.19
2019-02-03T04:50:59.540Z,94744.16
2019-02-03T04:53:25.868Z,94741.22
2019-02-03T04:55:52.245Z,94739.12
2019-02-03T04:58:18.604Z,94740.19
2019-02-03T05:00:44.966Z,94738.56
2019-02-03T05:03:11.316Z,94746.99
2019-02-03T05:05:37.697Z,94747.09
2019-02-03T05:08:04.048Z,94749.09
2019-02-03T05:10:30.517Z,94751.30
2019-02-03T05:12:56.879Z,94751.30
2019-02-03T05:15:23.231Z,94757.06
2019-02-03T05:17:49.773Z,94765.13
2019-02-03T05:20:16.116Z,94774.09
2019-02-03T05:22:42.427Z,94766.05
2019-02-03T05:25:08.780Z,94777.03
2019-02-03T05:27:35.143Z,94774.47
2019-02-03T05:30:01.546Z,94765.83
2019-02-03T05:32:27.906Z,94775.56
2019-02-03T05:34:54.261Z,94772.45
2019-02-03T05:37:20.666Z,94768.39
2019-02-03T05:39:47.042Z,94773.00
2019-02-03T05:42:13.360Z,94776.78
2019-02-03T05:44:39.691Z,94776.20
2019-02-03T05:47:06.023Z,94780.97
2019-02-03T05:49:32.403Z,94777.95
2019-02-03T05:51:58.730Z,94777.03
2019-02-03T05:54:25.096Z,94774.47
2019-02-03T05:56:51.414Z,94777.12
2019-02-03T05:59:17.732Z,94777.77
2019-02-03T06:01:44.169Z,94777.12
2019-02-03T06:04:10.495Z,94782.25
2019-02-03T06:06:36.846Z,94790.77
2019-02-03T06:09:03.216Z,94780.87
2019-02-03T06:11:29.553Z,94783.53
2019-02-03T06:13:55.929Z,94775.38
2019-02-03T06:16:22.249Z,94783.20
2019-02-03T06:18:51.081Z,94787.47
2019-02-03T06:21:17.421Z,94789.84
2019-02-03T06:23:43.805Z,94787.75
2019-02-03T06:26:10.236Z,94795.80
2019-02-03T06:28:36.575Z,94799.16
2019-02-03T06:31:02.913Z,94798.73
2019-02-03T06:33:29.277Z,94797.55
2019-02-03T06:35:55.638Z,94796.35
2019-02-03T06:38:21.969Z,94810.36
2019-02-03T06:40:48.304Z,94809.54
2019-02-03T06:43:14.649Z,94817.59
2019-02-03T06:45:41.084Z,94813.66
2019-02-03T06:48:07.420Z,94819.67
2019-02-03T06:50:33.751Z,94830.70
2019-02-03T06:53:00.074Z,94830.23
2019-02-03T06:55:26.443Z,94829.05
2019-02-03T06:57:52.787Z,94830.05
2019-02-03T07:00:19.117Z,94828.64
2019-02-03T07:02:48.188Z,94836.89
2019-02-03T07:05:14.515Z,94830.94
2019-02-03T07:07:40.860Z,94843.39
2019-02-03T07:10:07.243Z,94835.16
2019-02-03T07:12:33.643Z,94836.89
2019-02-03T07:14:59.975Z,94831.98
2019-02-03T07:17:26.412Z,94838.48
2019-02-03T07:19:52.745Z,94842.94
2019-02-03T07:22:19.090Z,94850.08
2019-02-03T07:24:45.435Z,94849.13
2019-02-03T07:27:12.120Z,94851.24
2019-02-03T07:29:38.132Z,94858.94
2019-02-03T07:32:04.463Z,94856.37
2019-02-03T07:34:30.793Z,94844.59
2019-02-03T07:36:57.191Z,94842.39
2019-02-03T07:39:23.513Z,94854.63
2019-02-03T07:41:49.890Z,94851.85
2019-02-03T07:44:16.221Z,94855.00
2019-02-03T07:46:42.594Z,94855.34
2019-02-03T07:49:08.922Z,94855.45
2019-02-03T07:51:35.319Z,94859.18
2019-02-03T07:54:08.546Z,94853.26
2019-02-03T07:56:28.025Z,94855.34
2019-02-03T07:58:54.355Z,94852.47
2019-02-03T08:01:20.693Z,94854.33
2019-02-03T08:03:47.154Z,94843.95
2019-02-03T08:06:13.494Z,94846.51
2019-02-03T08:08:39.894Z,94842.30
2019-02-03T08:11:06.244Z,94842.66
2019-02-03T08:13:32.678Z,94843.03
2019-02-03T08:15:59.003Z,94836.62
2019-02-03T08:18:25.337Z,94839.21
2019-02-03T08:20:51.660Z,94842.81
2019-02-03T08:23:17.988Z,94842.23
2019-02-03T08:25:44.320Z,94843.42
2019-02-03T08:28:10.762Z,94832.10
2019-02-03T08:30:37.130Z,94833.38
2019-02-03T08:33:03.477Z,94829.53
2019-02-03T08:35:29.807Z,94835.00
2019-02-03T08:37:56.195Z,94831.77
2019-02-03T08:40:22.521Z,94830.27
2019-02-03T08:42:48.946Z,94832.59
2019-02-03T08:45:15.275Z,94824.89
2019-02-03T08:47:41.606Z,94836.67
2019-02-03T08:50:07.937Z,94841.72
2019-02-03T08:52:34.392Z,94842.76
2019-02-03T08:55:00.710Z,94838.45
2019-02-03T08:57:27.063Z,94838.69
2019-02-03T08:59:53.404Z,94839.39
2019-02-03T09:02:19.741Z,94831.70
2019-02-03T09:04:46.120Z,94842.94
2019-02-03T09:07:12.413Z,94853.89
2019-02-03T09:09:38.730Z,94842.20
2019-02-03T09:12:05.070Z,94849.08
2019-02-03T09:14:31.451Z,94843.76
2019-02-03T09:16:57.823Z,94844.92
2019-02-03T09:19:24.106Z,94847.94
2019-02-03T09:21:50.538Z,94850.30
2019-02-03T09:24:16.950Z,94843.55
2019-02-03T09:26:43.304Z,94847.27
2019-02-03T09:29:09.660Z,94846.91
2019-02-03T09:31:36.104Z,94841.77
2019-02-03T09:34:02.315Z,94845.44
2019-02-03T09:36:28.716Z,94837.61
2019-02-03T09:38:55.047Z,94841.00
2019-02-03T09:41:21.377Z,94830.83
2019-02-03T09:43:47.718Z,94829.45
2019-02-03T09:46:14.079Z,94829.45
2019-02-03T09:48:40.414Z,94825.23
2019-02-03T09:51:06.746Z,94818.27
2019-02-03T09:53:33.093Z,94821.75
2019-02-03T09:55:59.447Z,94807.06
2019-02-03T09:58:25.824Z,94813.71
2019-02-03T10:00:52.198Z,94800.09
2019-02-03T10:03:18.526Z,94797.86
2019-02-03T10:05:44.872Z,94788.55
2019-02-03T10:08:11.202Z,94774.89
2019-02-03T10:10:37.571Z,94770.09
2019-02-03T10:13:03.886Z,94775.13
2019-02-03T10:15:30.242Z,94766.15
2019-02-03T10:17:56.571Z,94778.88
2019-02-03T10:20:22.897Z,94763.95
2019-02-03T10:22:49.232Z,94760.55
2019-02-03T10:25:15.559Z,94766.51
2019-02-03T10:27:44.702Z,94755.66
2019-02-03T10:30:11.000Z,94735.21
2019-02-03T10:32:37.336Z,94751.94
2019-02-03T10:35:03.659Z,94751.59
2019-02-03T10:37:29.994Z,94747.86
2019-02-03T10:39:56.327Z,94747.38
2019-02-03T10:42:22.654Z,94742.97
2019-02-03T10:44:49.027Z,94743.80
2019-02-03T10:47:15.367Z,94745.41
2019-02-03T10:49:41.698Z,94744.39
2019-02-03T10:52:08.027Z,94737.16
2019-02-03T10:54:34.355Z,94732.34
2019-02-03T10:57:00.694Z,94732.02
2019-02-03T10:59:27.050Z,94728.50
2019-02-03T11:01:53.380Z,94721.75
2019-02-03T11:04:19.713Z,94722.91
2019-02-03T11:06:46.091Z,94722.68
2019-02-03T11:09:12.460Z,94711.27
2019-02-03T11:11:38.796Z,94720.02
2019-02-03T11:14:05.121Z,94721.17
2019-02-03T11:16:31.440Z,94719.56
2019-02-03T11:18:57.820Z,94715.81
2019-02-03T11:21:24.175Z,94717.23
2019-02-03T11:23:50.521Z,94712.45
2019-02-03T11:26:16.856Z,94693.99
2019-02-03T11:28:43.194Z,94695.54
2019-02-03T11:31:09.553Z,94699.03
2019-02-03T11:33:35.906Z,94693.57
2019-02-03T11:36:02.279Z,94694.36
2019-02-03T11:38:28.687Z,94693.44
2019-02-03T11:40:55.093Z,94684.22
2019-02-03T11:43:21.517Z,94684.98
2019-02-03T11:45:47.847Z,94674.71
2019-02-03T11:48:16.124Z,94671.66
2019-02-03T11:50:41.741Z,94668.75
2019-02-03T11:53:06.835Z,94673.53
2019-02-03T11:55:33.176Z,94678.56
2019-02-03T11:57:59.503Z,94669.94
2019-02-03T12:00:27.787Z,94666.55
2019-02-03T12:02:54.817Z,94664.31
2019-02-03T12:05:25.848Z,94663.52
2019-02-03T12:07:50.294Z,94651.23
2019-02-03T12:10:18.835Z,94649.03
2019-02-03T12:12:45.156Z,94659.30
2019-02-03T12:15:11.626Z,94631.98
2019-02-03T12:17:38.032Z,94643.53
2019-02-03T12:20:06.330Z,94640.41
2019-02-03T12:22:30.700Z,94636.32
2019-02-03T12:24:59.279Z,94633.03
2019-02-03T12:27:25.654Z,94633.62
2019-02-03T12:29:51.946Z,94627.56
2019-02-03T12:32:22.319Z,94624.99
2019-02-03T12:34:44.632Z,94623.34
2019-02-03T12:37:10.975Z,94623.70
2019-02-03T12:39:39.284Z,94641.09
2019-02-03T12:42:12.862Z,94631.41
2019-02-03T12:44:33.982Z,94624.88
2019-02-03T12:46:58.280Z,94634.69
2019-02-03T12:49:24.668Z,94630.70
2019-02-03T12:51:53.423Z,94624.28
2019-02-03T12:54:22.766Z,94623.95
2019-02-03T12:56:49.102Z,94633.63
2019-02-03T12:59:15.462Z,94625.47
2019-02-03T13:01:41.777Z,94632.80
2019-02-03T13:04:10.557Z,94624.05
2019-02-03T13:06:37.014Z,94623.48
2019-02-03T13:09:07.475Z,94626.52
2019-02-03T13:11:29.728Z,94611.92
2019-02-03T13:13:57.797Z,94615.19
2019-02-03T13:16:22.456Z,94622.42
2019-02-03T13:18:50.418Z,94626.87
2019-02-03T13:21:16.790Z,94631.52
2019-02-03T13:23:46.796Z,94632.23
2019-02-03T13:26:12.003Z,94634.11
2019-02-03T13:28:39.340Z,94639.71
2019-02-03T13:31:11.196Z,94635.95
2019-02-03T13:33:36.271Z,94640.86
2019-02-03T13:36:04.656Z,94630.58
2019-02-03T13:38:29.024Z,94625.80
2019-02-03T13:40:55.345Z,94624.53
2019-02-03T13:43:24.193Z,94614.36
2019-02-03T13:45:51.513Z,94608.98
2019-02-03T13:48:16.915Z,94616.45
2019-02-03T13:50:43.274Z,94624.98
2019-02-03T13:53:11.619Z,94624.88
2019-02-03T13:55:37.990Z,94630.70
2019-02-03T13:58:04.367Z,94630.70
2019-02-03T14:00:30.719Z,94640.16
2019-02-03T14:02:59.052Z,94631.06
2019-02-03T14:05:23.387Z,94621.48
2019-02-03T14:07:49.731Z,94623.92
2019-02-03T14:10:16.068Z,94626.84
2019-02-03T14:12:50.221Z,94626.38
2019-02-03T14:15:08.757Z,94628.84
2019-02-03T14:17:37.850Z,94617.27
2019-02-03T14:20:04.206Z,94612.00
2019-02-03T14:22:36.204Z,94623.45
2019-02-03T14:25:04.880Z,94632.20
2019-02-03T14:27:33.740Z,94629.06
2019-02-03T14:30:00.033Z,94634.20
2019-02-03T14:32:32.426Z,94639.89
2019-02-03T14:34:54.015Z,94636.28
2019-02-03T14:37:20.357Z,94635.47
2019-02-03T14:39:49.718Z,94635.94
2019-02-03T14:42:13.739Z,94632.68
2019-02-03T14:44:48.917Z,94632.53
2019-02-03T14:47:14.007Z,94644.69
2019-02-03T14:49:41.292Z,94638.28
2019-02-03T14:52:10.059Z,94643.05
2019-02-03T14:54:35.215Z,94650.66
2019-02-03T14:57:01.543Z,94638.05
2019-02-03T14:59:27.931Z,94645.29
2019-02-03T15:01:56.714Z,94653.83
2019-02-03T15:04:25.146Z,94643.41
2019-02-03T15:06:49.499Z,94652.41
2019-02-03T15:09:17.982Z,94653.59
2019-02-03T15:11:42.403Z,94640.61
2019-02-03T15:14:11.743Z,94652.64
2019-02-03T15:16:38.094Z,94650.77
2019-02-03T15:19:04.424Z,94667.83
2019-02-03T15:21:31.781Z,94654.05
2019-02-03T15:23:57.144Z,94654.16
2019-02-03T15:26:23.478Z,94652.41
2019-02-03T15:28:51.876Z,94643.05
2019-02-03T15:31:16.232Z,94616.55
2019-02-03T15:33:44.780Z,94638.51
2019-02-03T15:36:13.103Z,94635.34
2019-02-03T15:38:38.722Z,94647.73
2019-02-03T15:41:05.140Z,94647.40
2019-02-03T15:43:32.988Z,94655.91
2019-02-03T15:45:59.317Z,94654.62
2019-02-03T15:48:29.526Z,94655.91
2019-02-03T15:50:54.769Z,94665.39
2019-02-03T15:53:21.098Z,94675.17
2019-02-03T15:55:47.451Z,94687.47
2019-02-03T15:58:13.781Z,94685.00
2019-02-03T16:00:45.266Z,94681.14
2019-02-03T16:03:11.658Z,94690.73
2019-02-03T16:05:38.207Z,94684.09
2019-02-03T16:08:04.553Z,94683.59
2019-02-03T16:10:30.882Z,94680.23
2019-02-03T16:12:57.335Z,94674.59
2019-02-03T16:15:23.671Z,94672.02
2019-02-03T16:17:52.066Z,94678.81
2019-02-03T16:20:18.398Z,94681.52
2019-02-03T16:22:44.728Z,94679.88
2019-02-03T16:25:11.076Z,94689.55
2019-02-03T16:27:37.473Z,94686.66
2019-02-03T16:30:03.797Z,94692.26
2019-02-03T16:32:30.150Z,94697.05
2019-02-03T16:35:00.333Z,94698.92
2019-02-03T16:37:26.618Z,94697.73
2019-02-03T16:39:52.971Z,94699.74
2019-02-03T16:42:19.327Z,94703.48
2019-02-03T16:44:45.795Z,94708.39
2019-02-03T16:47:14.746Z,94709.41
2019-02-03T16:49:38.505Z,94708.83
2019-02-03T16:52:05.834Z,94703.70
2019-02-03T16:54:31.193Z,94705.21
2019-02-03T16:56:57.517Z,94704.86
2019-02-03T16:59:26.699Z,94709.64
2019-02-03T17:01:53.146Z,94710.36
2019-02-03T17:04:23.083Z,94714.08
2019-02-03T17:06:49.216Z,94717.22
2019-02-03T17:09:14.753Z,94716.42
2019-02-03T17:11:40.979Z,94707.17
2019-02-03T17:14:07.325Z,94709.05
2019-02-03T17:16:33.664Z,94713.13
2019-02-03T17:19:00.071Z,94716.16
2019-02-03T17:21:26.348Z,94723.17
2019-02-03T17:23:52.682Z,94719.06
2019-02-03T17:26:19.045Z,94716.03
2019-02-03T17:28:46.572Z,94727.25
2019-02-03T17:31:11.767Z,94725.70
2019-02-03T17:33:38.106Z,94748.82
2019-02-03T17:36:04.497Z,94760.38
2019-02-03T17:38:30.844Z,94762.61
2019-02-03T17:40:57.225Z,94758.30
2019-02-03T17:43:26.333Z,94755.95
2019-02-03T17:45:52.695Z,94757.34
2019-02-03T17:48:19.024Z,94761.29
2019-02-03T17:50:45.357Z,94768.20
2019-02-03T17:53:11.716Z,94766.31
2019-02-03T17:55:38.072Z,94768.48
2019-02-03T17:58:04.401Z,94773.89
2019-02-03T18:00:33.563Z,94787.38
2019-02-03T18:02:59.893Z,94781.72
2019-02-03T18:05:26.298Z,94787.38
2019-02-03T18:07:52.631Z,94785.41
2019-02-03T18:10:21.793Z,94795.77
2019-02-03T18:12:48.130Z,94798.11
2019-02-03T18:15:14.463Z,94784.22
2019-02-03T18:17:40.862Z,94786.21
2019-02-03T18:20:07.202Z,94783.52
2019-02-03T18:22:33.551Z,94794.59
2019-02-03T18:24:59.882Z,94789.80
2019-02-03T18:27:29.321Z,94799.73
2019-02-03T18:29:55.690Z,94814.09
2019-02-03T18:32:22.098Z,94817.48
2019-02-03T18:34:48.428Z,94816.42
2019-02-03T18:37:14.788Z,94812.30
2019-02-03T18:39:42.541Z,94816.64
2019-02-03T18:42:07.530Z,94822.69
2019-02-03T18:44:38.979Z,94813.70
2019-02-03T18:47:02.530Z,94826.54
2019-02-03T18:49:28.875Z,94824.07
2019-02-03T18:51:56.953Z,94827.92
2019-02-03T18:54:26.321Z,94837.03
2019-02-03T18:56:50.689Z,94834.92
2019-02-03T18:59:17.012Z,94839.67
2019-02-03T19:01:44.649Z,94849.63
2019-02-03T19:04:12.309Z,94849.13
2019-02-03T19:06:38.665Z,94861.17
2019-02-03T19:09:05.036Z,94860.23
2019-02-03T19:11:31.427Z,94866.86
2019-02-03T19:13:57.751Z,94877.13
2019-02-03T19:16:24.145Z,94872.55
2019-02-03T19:18:50.474Z,94874.53
2019-02-03T19:21:16.844Z,94878.75
2019-02-03T19:23:48.285Z,94880.73
2019-02-03T19:26:12.780Z,94886.23
2019-02-03T19:28:42.832Z,94897.41
2019-02-03T19:31:09.089Z,94885.84
2019-02-03T19:33:34.264Z,94888.04
2019-02-03T19:36:00.602Z,94896.20
2019-02-03T19:38:31.626Z,94895.98
2019-02-03T19:40:53.326Z,94897.84
2019-02-03T19:43:21.930Z,94912.88
2019-02-03T19:45:52.057Z,94911.84
2019-02-03T19:48:18.290Z,94916.02
2019-02-03T19:50:43.423Z,94921.25
2019-02-03T19:53:09.755Z,94928.24
2019-02-03T19:55:36.131Z,94928.03
2019-02-03T19:58:06.751Z,94925.22
2019-02-03T20:00:33.378Z,94928.95
2019-02-03T20:03:06.618Z,94926.50
2019-02-03T20:05:28.487Z,94922.41
2019-02-03T20:07:57.104Z,94931.84
2019-02-03T20:10:27.496Z,94930.56
2019-02-03T20:12:53.397Z,94926.34
2019-02-03T20:15:18.505Z,94937.07
2019-02-03T20:17:52.110Z,94938.48
2019-02-03T20:20:18.448Z,94946.42
2019-02-03T20:22:44.783Z,94940.22
2019-02-03T20:25:15.093Z,94934.84
2019-02-03T20:27:42.666Z,94938.87
2019-02-03T20:30:09.049Z,94943.81
2019-02-03T20:32:35.386Z,94933.44
2019-02-03T20:35:07.985Z,94943.23
2019-02-03T20:37:34.323Z,94941.34
2019-02-03T20:40:02.385Z,94935.30
2019-02-03T20:42:27.000Z,94947.51
2019-02-03T20:44:53.306Z,94933.16
2019-02-03T20:47:19.638Z,94942.02
2019-02-03T20:49:45.985Z,94955.55
2019-02-03T20:52:13.430Z,94945.61
2019-02-03T20:54:38.695Z,94959.11
2019-02-03T20:57:06.977Z,94964.02
2019-02-03T20:59:33.306Z,94958.81
2019-02-03T21:01:59.671Z,94962.03
2019-02-03T21:04:26.038Z,94958.07
2019-02-03T21:06:55.233Z,94963.11
2019-02-03T21:09:25.437Z,94957.12
2019-02-03T21:11:50.721Z,94977.88
2019-02-03T21:14:18.013Z,94961.58
2019-02-03T21:16:43.451Z,94960.75
2019-02-03T21:19:11.768Z,94980.45
2019-02-03T21:21:36.167Z,94977.27
2019-02-03T21:24:02.508Z,94980.45
2019-02-03T21:26:30.496Z,94982.28
2019-02-03T21:28:55.197Z,94986.50
2019-02-03T21:31:21.633Z,94993.73
2019-02-03T21:33:47.904Z,94989.89
2019-02-03T21:36:14.238Z,95001.18
2019-02-03T21:38:42.824Z,94999.16
2019-02-03T21:41:10.353Z,94995.89
2019-02-03T21:43:37.198Z,94994.52
2019-02-03T21:46:01.920Z,94997.62
2019-02-03T21:48:33.009Z,94994.15
2019-02-03T21:50:56.295Z,95006.40
2019-02-03T21:53:22.656Z,95009.54
2019-02-03T21:55:49.107Z,95015.22
2019-02-03T21:58:15.440Z,95029.53
2019-02-03T22:00:41.811Z,95017.78
2019-02-03T22:03:11.490Z,95042.97
2019-02-03T22:05:44.088Z,94988.40
2019-02-03T22:08:16.378Z,95037.84
2019-02-03T22:10:38.427Z,95025.14
2019-02-03T22:13:04.759Z,95012.85
2019-02-03T22:15:37.093Z,95046.94
2019-02-03T22:18:03.446Z,95035.59
2019-02-03T22:20:29.812Z,95017.73
2019-02-03T22:22:59.102Z,95048.05
2019-02-03T22:25:35.822Z,95055.86
2019-02-03T22:27:51.756Z,95054.58
2019-02-03T22:30:21.009Z,95056.66
2019-02-03T22:32:46.156Z,95041.39
2019-02-03T22:35:16.568Z,95073.45
2019-02-03T22:37:41.301Z,95038.00
2019-02-03T22:40:10.705Z,95053.39
2019-02-03T22:42:35.750Z,95064.67
2019-02-03T22:45:02.029Z,95043.95
2019-02-03T22:47:28.394Z,95058.06
2019-02-03T22:49:55.879Z,95059.34
2019-02-03T22:52:22.329Z,95053.95
2019-02-03T22:54:50.143Z,95054.30
2019-02-03T22:57:16.475Z,95060.83
2019-02-03T22:59:42.831Z,95063.39
2019-02-03T23:02:12.184Z,95062.64
2019-02-03T23:04:38.536Z,95051.28
2019-02-03T23:07:04.887Z,95065.30
2019-02-03T23:09:33.068Z,95063.47
2019-02-03T23:11:57.528Z,95058.14
2019-02-03T23:14:23.857Z,95072.66
2019-02-03T23:16:50.274Z,95068.27
2019-02-03T23:19:16.624Z,95061.56
2019-02-03T23:21:44.985Z,95072.00
2019-02-03T23:24:11.323Z,95075.39
2019-02-03T23:26:35.698Z,95084.28
2019-02-03T23:29:02.059Z,95078.78
2019-02-03T23:31:28.417Z,95086.09
2019-02-03T23:33:54.783Z,95086.02
2019-02-03T23:36:21.151Z,95087.30
2019-02-03T23:38:47.556Z,95087.13
2019-02-03T23:41:13.965Z,95090.20
2019-02-03T23:43:40.263Z,95084.81
2019-02-03T23:46:06.654Z,95098.83
2019-02-03T23:48:33.168Z,95108.72
2019-02-03T23:50:59.497Z,95111.20
2019-02-03T23:53:25.840Z,95110.57
2019-02-03T23:55:52.273Z,95103.96
2019-02-03T23:58:18.620Z,95101.68
